sensor_id;sensor_type;location;lat;lon;timestamp;temperature;humidity
13928;DHT22;7036;50.834;4.718;2023-03-16T00:00:23;16.80;52.80
13928;DHT22;7036;50.834;4.718;2023-03-16T00:02:50;16.80;52.80
13928;DHT22;7036;50.834;4.718;2023-03-16T00:05:17;16.80;52.90
13928;DHT22;7036;50.834;4.718;2023-03-16T00:07:44;16.80;52.90
13928;DHT22;7036;50.834;4.718;2023-03-16T00:10:12;16.80;52.90
13928;DHT22;7036;50.834;4.718;2023-03-16T00:12:39;16.80;53.00
13928;DHT22;7036;50.834;4.718;2023-03-16T00:15:06;16.80;52.90
13928;DHT22;7036;50.834;4.718;2023-03-16T00:17:33;16.80;52.90
13928;DHT22;7036;50.834;4.718;2023-03-16T00:20:00;16.80;52.90
13928;DHT22;7036;50.834;4.718;2023-03-16T00:22:28;16.80;52.90
13928;DHT22;7036;50.834;4.718;2023-03-16T00:24:55;16.80;52.90
13928;DHT22;7036;50.834;4.718;2023-03-16T00:27:23;16.80;53.00
13928;DHT22;7036;50.834;4.718;2023-03-16T00:29:50;16.80;53.00
13928;DHT22;7036;50.834;4.718;2023-03-16T00:32:18;16.80;53.00
13928;DHT22;7036;50.834;4.718;2023-03-16T00:34:44;16.70;52.90
13928;DHT22;7036;50.834;4.718;2023-03-16T00:37:12;16.80;53.00
13928;DHT22;7036;50.834;4.718;2023-03-16T00:39:39;16.70;52.90
13928;DHT22;7036;50.834;4.718;2023-03-16T00:42:05;16.70;53.00
13928;DHT22;7036;50.834;4.718;2023-03-16T00:44:33;16.70;53.00
13928;DHT22;7036;50.834;4.718;2023-03-16T00:47:00;16.70;52.90
13928;DHT22;7036;50.834;4.718;2023-03-16T00:49:27;16.70;53.00
13928;DHT22;7036;50.834;4.718;2023-03-16T00:51:54;16.70;53.00
13928;DHT22;7036;50.834;4.718;2023-03-16T00:54:21;16.70;53.00
13928;DHT22;7036;50.834;4.718;2023-03-16T00:56:48;16.70;53.00
13928;DHT22;7036;50.834;4.718;2023-03-16T00:59:16;16.70;53.00
13928;DHT22;7036;50.834;4.718;2023-03-16T01:01:43;16.70;53.00
13928;DHT22;7036;50.834;4.718;2023-03-16T01:04:10;16.70;53.00
13928;DHT22;7036;50.834;4.718;2023-03-16T01:06:37;16.70;53.00
13928;DHT22;7036;50.834;4.718;2023-03-16T01:09:04;16.70;53.00
13928;DHT22;7036;50.834;4.718;2023-03-16T01:11:32;16.70;53.00
13928;DHT22;7036;50.834;4.718;2023-03-16T01:14:01;16.70;53.00
13928;DHT22;7036;50.834;4.718;2023-03-16T01:16:28;16.60;53.00
13928;DHT22;7036;50.834;4.718;2023-03-16T01:18:55;16.60;52.90
13928;DHT22;7036;50.834;4.718;2023-03-16T01:21:23;16.60;53.00
13928;DHT22;7036;50.834;4.718;2023-03-16T01:23:50;16.60;53.00
13928;DHT22;7036;50.834;4.718;2023-03-16T01:26:17;16.60;53.00
13928;DHT22;7036;50.834;4.718;2023-03-16T01:28:45;16.60;53.00
13928;DHT22;7036;50.834;4.718;2023-03-16T01:31:12;16.60;53.00
13928;DHT22;7036;50.834;4.718;2023-03-16T01:33:39;16.60;53.00
13928;DHT22;7036;50.834;4.718;2023-03-16T01:36:08;16.60;53.00
13928;DHT22;7036;50.834;4.718;2023-03-16T01:38:34;16.60;52.90
13928;DHT22;7036;50.834;4.718;2023-03-16T01:41:01;16.60;53.70
13928;DHT22;7036;50.834;4.718;2023-03-16T01:43:28;16.60;53.00
13928;DHT22;7036;50.834;4.718;2023-03-16T01:48:48;16.60;53.00
13928;DHT22;7036;50.834;4.718;2023-03-16T01:51:18;16.60;53.00
13928;DHT22;7036;50.834;4.718;2023-03-16T01:53:43;16.50;53.00
13928;DHT22;7036;50.834;4.718;2023-03-16T01:56:10;16.60;53.00
13928;DHT22;7036;50.834;4.718;2023-03-16T01:58:37;16.50;53.00
13928;DHT22;7036;50.834;4.718;2023-03-16T02:01:04;16.50;53.00
13928;DHT22;7036;50.834;4.718;2023-03-16T02:03:31;16.50;53.10
13928;DHT22;7036;50.834;4.718;2023-03-16T02:06:03;16.50;53.00
13928;DHT22;7036;50.834;4.718;2023-03-16T02:08:26;16.50;53.00
13928;DHT22;7036;50.834;4.718;2023-03-16T02:10:54;16.50;53.00
13928;DHT22;7036;50.834;4.718;2023-03-16T02:13:21;16.50;53.00
13928;DHT22;7036;50.834;4.718;2023-03-16T02:15:48;16.50;53.00
13928;DHT22;7036;50.834;4.718;2023-03-16T02:18:15;16.50;53.00
13928;DHT22;7036;50.834;4.718;2023-03-16T02:20:47;16.50;53.10
13928;DHT22;7036;50.834;4.718;2023-03-16T02:23:14;16.50;53.10
13928;DHT22;7036;50.834;4.718;2023-03-16T02:30:52;16.40;53.00
13928;DHT22;7036;50.834;4.718;2023-03-16T02:33:20;16.50;53.00
13928;DHT22;7036;50.834;4.718;2023-03-16T02:35:47;16.50;53.10
13928;DHT22;7036;50.834;4.718;2023-03-16T02:38:14;16.40;53.00
13928;DHT22;7036;50.834;4.718;2023-03-16T02:40:42;16.40;53.00
13928;DHT22;7036;50.834;4.718;2023-03-16T02:43:10;16.40;53.00
13928;DHT22;7036;50.834;4.718;2023-03-16T02:45:46;16.40;53.00
13928;DHT22;7036;50.834;4.718;2023-03-16T02:48:13;16.40;53.10
13928;DHT22;7036;50.834;4.718;2023-03-16T02:50:43;16.40;53.10
13928;DHT22;7036;50.834;4.718;2023-03-16T02:53:08;16.40;53.10
13928;DHT22;7036;50.834;4.718;2023-03-16T02:55:35;16.40;53.00
13928;DHT22;7036;50.834;4.718;2023-03-16T02:58:02;16.40;53.10
13928;DHT22;7036;50.834;4.718;2023-03-16T03:00:29;16.40;53.10
13928;DHT22;7036;50.834;4.718;2023-03-16T03:02:58;16.40;53.10
13928;DHT22;7036;50.834;4.718;2023-03-16T03:05:24;16.40;53.20
13928;DHT22;7036;50.834;4.718;2023-03-16T03:07:52;16.40;53.10
13928;DHT22;7036;50.834;4.718;2023-03-16T03:10:19;16.40;53.10
13928;DHT22;7036;50.834;4.718;2023-03-16T03:12:46;16.40;53.10
13928;DHT22;7036;50.834;4.718;2023-03-16T03:15:14;16.40;53.10
13928;DHT22;7036;50.834;4.718;2023-03-16T03:17:41;16.40;53.50
13928;DHT22;7036;50.834;4.718;2023-03-16T03:20:08;16.40;53.10
13928;DHT22;7036;50.834;4.718;2023-03-16T03:22:35;16.40;53.10
13928;DHT22;7036;50.834;4.718;2023-03-16T03:25:02;16.40;53.10
13928;DHT22;7036;50.834;4.718;2023-03-16T03:27:30;16.30;53.00
13928;DHT22;7036;50.834;4.718;2023-03-16T03:29:57;16.30;53.10
13928;DHT22;7036;50.834;4.718;2023-03-16T03:32:24;16.40;53.20
13928;DHT22;7036;50.834;4.718;2023-03-16T03:34:52;16.30;53.10
13928;DHT22;7036;50.834;4.718;2023-03-16T03:37:19;16.30;53.10
13928;DHT22;7036;50.834;4.718;2023-03-16T03:39:46;16.30;53.10
13928;DHT22;7036;50.834;4.718;2023-03-16T03:42:13;16.40;53.20
13928;DHT22;7036;50.834;4.718;2023-03-16T03:44:40;16.30;53.80
13928;DHT22;7036;50.834;4.718;2023-03-16T03:47:08;16.30;53.20
13928;DHT22;7036;50.834;4.718;2023-03-16T03:49:35;16.30;53.20
13928;DHT22;7036;50.834;4.718;2023-03-16T03:52:02;16.30;53.20
13928;DHT22;7036;50.834;4.718;2023-03-16T03:54:30;16.30;53.20
13928;DHT22;7036;50.834;4.718;2023-03-16T03:56:57;16.30;53.20
13928;DHT22;7036;50.834;4.718;2023-03-16T03:59:24;16.30;53.20
13928;DHT22;7036;50.834;4.718;2023-03-16T04:01:51;16.30;53.30
13928;DHT22;7036;50.834;4.718;2023-03-16T04:04:19;16.30;53.80
13928;DHT22;7036;50.834;4.718;2023-03-16T04:06:46;16.30;53.20
13928;DHT22;7036;50.834;4.718;2023-03-16T04:09:13;16.30;53.30
13928;DHT22;7036;50.834;4.718;2023-03-16T04:11:40;16.30;53.20
13928;DHT22;7036;50.834;4.718;2023-03-16T04:14:07;16.30;53.20
13928;DHT22;7036;50.834;4.718;2023-03-16T04:16:35;16.30;53.20
13928;DHT22;7036;50.834;4.718;2023-03-16T04:19:02;16.30;53.30
13928;DHT22;7036;50.834;4.718;2023-03-16T04:21:29;16.20;53.20
13928;DHT22;7036;50.834;4.718;2023-03-16T04:23:56;16.30;53.20
13928;DHT22;7036;50.834;4.718;2023-03-16T04:26:24;16.20;53.80
13928;DHT22;7036;50.834;4.718;2023-03-16T04:28:51;16.20;53.20
13928;DHT22;7036;50.834;4.718;2023-03-16T04:31:18;16.30;53.30
13928;DHT22;7036;50.834;4.718;2023-03-16T04:33:45;16.30;53.30
13928;DHT22;7036;50.834;4.718;2023-03-16T04:36:13;16.30;53.30
13928;DHT22;7036;50.834;4.718;2023-03-16T04:38:40;16.20;53.20
13928;DHT22;7036;50.834;4.718;2023-03-16T04:41:08;16.30;53.30
13928;DHT22;7036;50.834;4.718;2023-03-16T04:43:34;16.30;53.20
13928;DHT22;7036;50.834;4.718;2023-03-16T04:46:02;16.20;53.10
13928;DHT22;7036;50.834;4.718;2023-03-16T04:48:29;16.30;53.30
13928;DHT22;7036;50.834;4.718;2023-03-16T04:50:56;16.30;53.30
13928;DHT22;7036;50.834;4.718;2023-03-16T04:53:23;16.20;53.30
13928;DHT22;7036;50.834;4.718;2023-03-16T04:55:50;16.20;53.30
13928;DHT22;7036;50.834;4.718;2023-03-16T04:58:18;16.20;53.30
13928;DHT22;7036;50.834;4.718;2023-03-16T05:00:45;16.20;53.30
13928;DHT22;7036;50.834;4.718;2023-03-16T05:03:12;16.20;53.30
13928;DHT22;7036;50.834;4.718;2023-03-16T05:05:39;16.20;53.30
13928;DHT22;7036;50.834;4.718;2023-03-16T05:08:06;16.20;53.30
13928;DHT22;7036;50.834;4.718;2023-03-16T05:10:34;16.20;53.30
13928;DHT22;7036;50.834;4.718;2023-03-16T05:13:01;16.20;53.30
13928;DHT22;7036;50.834;4.718;2023-03-16T05:15:28;16.20;53.30
13928;DHT22;7036;50.834;4.718;2023-03-16T05:17:55;16.20;53.30
13928;DHT22;7036;50.834;4.718;2023-03-16T05:20:22;16.20;53.30
13928;DHT22;7036;50.834;4.718;2023-03-16T05:22:50;16.20;53.30
13928;DHT22;7036;50.834;4.718;2023-03-16T05:25:17;16.20;53.30
13928;DHT22;7036;50.834;4.718;2023-03-16T05:27:45;16.20;53.30
13928;DHT22;7036;50.834;4.718;2023-03-16T05:30:12;16.20;53.30
13928;DHT22;7036;50.834;4.718;2023-03-16T05:32:38;16.20;53.30
13928;DHT22;7036;50.834;4.718;2023-03-16T05:35:06;16.10;53.30
13928;DHT22;7036;50.834;4.718;2023-03-16T05:37:33;16.20;53.30
13928;DHT22;7036;50.834;4.718;2023-03-16T05:40:06;16.20;53.30
13928;DHT22;7036;50.834;4.718;2023-03-16T05:42:38;16.10;53.20
13928;DHT22;7036;50.834;4.718;2023-03-16T05:45:05;16.10;53.30
13928;DHT22;7036;50.834;4.718;2023-03-16T05:47:32;16.20;53.30
13928;DHT22;7036;50.834;4.718;2023-03-16T05:49:59;16.10;53.20
13928;DHT22;7036;50.834;4.718;2023-03-16T05:52:27;16.10;53.30
13928;DHT22;7036;50.834;4.718;2023-03-16T05:54:54;16.10;53.30
13928;DHT22;7036;50.834;4.718;2023-03-16T05:57:21;16.10;53.40
13928;DHT22;7036;50.834;4.718;2023-03-16T05:59:48;16.10;53.40
13928;DHT22;7036;50.834;4.718;2023-03-16T06:02:15;16.10;53.30
13928;DHT22;7036;50.834;4.718;2023-03-16T06:04:43;16.10;53.40
13928;DHT22;7036;50.834;4.718;2023-03-16T06:07:10;16.10;53.30
13928;DHT22;7036;50.834;4.718;2023-03-16T06:09:37;16.10;53.40
13928;DHT22;7036;50.834;4.718;2023-03-16T06:12:04;16.10;53.40
13928;DHT22;7036;50.834;4.718;2023-03-16T06:14:31;16.10;53.30
13928;DHT22;7036;50.834;4.718;2023-03-16T06:16:58;16.10;53.30
13928;DHT22;7036;50.834;4.718;2023-03-16T06:19:26;16.10;53.40
13928;DHT22;7036;50.834;4.718;2023-03-16T06:21:54;16.10;53.40
13928;DHT22;7036;50.834;4.718;2023-03-16T06:24:21;16.10;53.30
13928;DHT22;7036;50.834;4.718;2023-03-16T06:26:48;16.10;53.30
13928;DHT22;7036;50.834;4.718;2023-03-16T06:29:15;16.10;53.40
13928;DHT22;7036;50.834;4.718;2023-03-16T06:31:42;16.10;54.00
13928;DHT22;7036;50.834;4.718;2023-03-16T06:34:09;16.10;53.30
13928;DHT22;7036;50.834;4.718;2023-03-16T06:36:36;16.10;54.00
13928;DHT22;7036;50.834;4.718;2023-03-16T06:39:04;16.10;53.30
13928;DHT22;7036;50.834;4.718;2023-03-16T06:41:31;16.10;53.30
13928;DHT22;7036;50.834;4.718;2023-03-16T06:43:59;16.00;53.30
13928;DHT22;7036;50.834;4.718;2023-03-16T06:46:26;16.00;53.60
13928;DHT22;7036;50.834;4.718;2023-03-16T06:48:53;16.00;53.30
13928;DHT22;7036;50.834;4.718;2023-03-16T06:51:20;16.00;53.30
13928;DHT22;7036;50.834;4.718;2023-03-16T06:53:47;16.00;53.30
13928;DHT22;7036;50.834;4.718;2023-03-16T06:56:14;16.10;53.30
13928;DHT22;7036;50.834;4.718;2023-03-16T06:58:42;16.00;53.30
13928;DHT22;7036;50.834;4.718;2023-03-16T07:01:09;16.00;53.30
13928;DHT22;7036;50.834;4.718;2023-03-16T07:03:36;16.00;53.30
13928;DHT22;7036;50.834;4.718;2023-03-16T07:06:03;16.00;53.30
13928;DHT22;7036;50.834;4.718;2023-03-16T07:08:30;16.00;53.30
13928;DHT22;7036;50.834;4.718;2023-03-16T07:10:58;16.00;53.30
13928;DHT22;7036;50.834;4.718;2023-03-16T07:13:25;16.00;53.30
13928;DHT22;7036;50.834;4.718;2023-03-16T07:15:52;16.00;53.40
13928;DHT22;7036;50.834;4.718;2023-03-16T07:18:19;16.00;53.40
13928;DHT22;7036;50.834;4.718;2023-03-16T07:20:46;16.00;53.30
13928;DHT22;7036;50.834;4.718;2023-03-16T07:23:13;16.00;53.30
13928;DHT22;7036;50.834;4.718;2023-03-16T07:25:41;16.00;53.30
13928;DHT22;7036;50.834;4.718;2023-03-16T07:28:08;16.00;53.30
13928;DHT22;7036;50.834;4.718;2023-03-16T07:30:36;16.00;53.40
13928;DHT22;7036;50.834;4.718;2023-03-16T07:33:03;16.00;53.30
13928;DHT22;7036;50.834;4.718;2023-03-16T07:35:30;16.00;53.40
13928;DHT22;7036;50.834;4.718;2023-03-16T07:37:57;16.00;53.30
13928;DHT22;7036;50.834;4.718;2023-03-16T07:40:24;16.00;53.30
13928;DHT22;7036;50.834;4.718;2023-03-16T07:42:51;16.00;53.30
13928;DHT22;7036;50.834;4.718;2023-03-16T07:45:18;16.00;53.30
13928;DHT22;7036;50.834;4.718;2023-03-16T07:47:46;16.00;53.30
13928;DHT22;7036;50.834;4.718;2023-03-16T07:50:13;16.00;53.30
13928;DHT22;7036;50.834;4.718;2023-03-16T07:52:40;16.00;54.00
13928;DHT22;7036;50.834;4.718;2023-03-16T07:55:07;16.00;53.30
13928;DHT22;7036;50.834;4.718;2023-03-16T07:57:34;16.00;53.30
13928;DHT22;7036;50.834;4.718;2023-03-16T08:00:02;16.00;53.20
13928;DHT22;7036;50.834;4.718;2023-03-16T08:02:29;16.00;53.30
13928;DHT22;7036;50.834;4.718;2023-03-16T08:04:56;16.10;53.30
13928;DHT22;7036;50.834;4.718;2023-03-16T08:07:23;16.10;53.20
13928;DHT22;7036;50.834;4.718;2023-03-16T08:09:50;16.20;53.20
13928;DHT22;7036;50.834;4.718;2023-03-16T08:12:17;16.30;53.00
13928;DHT22;7036;50.834;4.718;2023-03-16T08:14:44;16.30;52.80
13928;DHT22;7036;50.834;4.718;2023-03-16T08:17:12;16.40;52.70
13928;DHT22;7036;50.834;4.718;2023-03-16T08:19:39;16.40;52.40
13928;DHT22;7036;50.834;4.718;2023-03-16T08:22:06;16.50;52.40
13928;DHT22;7036;50.834;4.718;2023-03-16T08:24:33;16.50;52.50
13928;DHT22;7036;50.834;4.718;2023-03-16T08:27:00;16.60;52.60
13928;DHT22;7036;50.834;4.718;2023-03-16T08:29:28;16.60;52.60
13928;DHT22;7036;50.834;4.718;2023-03-16T08:31:55;16.60;52.50
13928;DHT22;7036;50.834;4.718;2023-03-16T08:34:22;16.60;52.50
13928;DHT22;7036;50.834;4.718;2023-03-16T08:36:49;16.70;52.50
13928;DHT22;7036;50.834;4.718;2023-03-16T08:39:16;16.70;52.40
13928;DHT22;7036;50.834;4.718;2023-03-16T08:41:44;16.70;52.30
13928;DHT22;7036;50.834;4.718;2023-03-16T08:44:11;16.70;52.20
13928;DHT22;7036;50.834;4.718;2023-03-16T08:46:38;16.70;52.20
13928;DHT22;7036;50.834;4.718;2023-03-16T08:49:05;16.70;52.30
13928;DHT22;7036;50.834;4.718;2023-03-16T08:51:32;16.70;52.30
13928;DHT22;7036;50.834;4.718;2023-03-16T08:54:00;16.70;52.30
13928;DHT22;7036;50.834;4.718;2023-03-16T08:56:27;16.70;52.30
13928;DHT22;7036;50.834;4.718;2023-03-16T08:58:54;16.70;52.30
13928;DHT22;7036;50.834;4.718;2023-03-16T09:01:21;16.70;52.30
13928;DHT22;7036;50.834;4.718;2023-03-16T09:03:48;16.80;52.50
13928;DHT22;7036;50.834;4.718;2023-03-16T09:06:15;16.80;52.30
13928;DHT22;7036;50.834;4.718;2023-03-16T09:08:43;16.80;52.30
13928;DHT22;7036;50.834;4.718;2023-03-16T09:11:11;16.80;52.20
13928;DHT22;7036;50.834;4.718;2023-03-16T09:13:37;16.80;52.20
13928;DHT22;7036;50.834;4.718;2023-03-16T09:16:05;16.80;52.20
13928;DHT22;7036;50.834;4.718;2023-03-16T09:18:32;16.90;52.30
13928;DHT22;7036;50.834;4.718;2023-03-16T09:20:59;17.00;52.30
13928;DHT22;7036;50.834;4.718;2023-03-16T09:23:26;17.00;52.20
13928;DHT22;7036;50.834;4.718;2023-03-16T09:25:56;17.10;52.30
13928;DHT22;7036;50.834;4.718;2023-03-16T09:28:20;17.10;52.20
13928;DHT22;7036;50.834;4.718;2023-03-16T09:30:48;17.10;52.40
13928;DHT22;7036;50.834;4.718;2023-03-16T09:33:15;17.20;52.50
13928;DHT22;7036;50.834;4.718;2023-03-16T09:35:43;17.20;52.40
13928;DHT22;7036;50.834;4.718;2023-03-16T09:38:09;17.30;52.40
13928;DHT22;7036;50.834;4.718;2023-03-16T09:40:37;17.30;52.30
13928;DHT22;7036;50.834;4.718;2023-03-16T09:43:35;17.40;52.30
13928;DHT22;7036;50.834;4.718;2023-03-16T09:46:14;17.40;52.20
13928;DHT22;7036;50.834;4.718;2023-03-16T09:48:39;17.50;52.10
13928;DHT22;7036;50.834;4.718;2023-03-16T09:51:11;17.50;52.00
13928;DHT22;7036;50.834;4.718;2023-03-16T09:53:35;17.50;52.00
13928;DHT22;7036;50.834;4.718;2023-03-16T09:56:05;17.50;52.00
13928;DHT22;7036;50.834;4.718;2023-03-16T09:58:30;17.60;52.00
13928;DHT22;7036;50.834;4.718;2023-03-16T10:01:21;17.60;52.00
13928;DHT22;7036;50.834;4.718;2023-03-16T10:06:15;17.60;52.00
13928;DHT22;7036;50.834;4.718;2023-03-16T10:08:43;17.60;52.00
13928;DHT22;7036;50.834;4.718;2023-03-16T10:11:30;17.60;51.90
13928;DHT22;7036;50.834;4.718;2023-03-16T10:16:39;17.60;51.90
13928;DHT22;7036;50.834;4.718;2023-03-16T10:19:35;17.60;51.90
13928;DHT22;7036;50.834;4.718;2023-03-16T10:21:59;17.60;51.90
13928;DHT22;7036;50.834;4.718;2023-03-16T10:24:37;17.60;52.00
13928;DHT22;7036;50.834;4.718;2023-03-16T10:26:59;17.60;52.00
13928;DHT22;7036;50.834;4.718;2023-03-16T10:29:31;17.60;52.00
13928;DHT22;7036;50.834;4.718;2023-03-16T10:31:59;17.60;51.90
13928;DHT22;7036;50.834;4.718;2023-03-16T10:34:26;17.70;52.50
13928;DHT22;7036;50.834;4.718;2023-03-16T10:36:53;17.60;52.00
13928;DHT22;7036;50.834;4.718;2023-03-16T10:39:20;17.60;51.90
13928;DHT22;7036;50.834;4.718;2023-03-16T10:41:53;17.70;51.90
13928;DHT22;7036;50.834;4.718;2023-03-16T10:44:16;17.70;51.80
13928;DHT22;7036;50.834;4.718;2023-03-16T10:51:45;17.70;51.90
13928;DHT22;7036;50.834;4.718;2023-03-16T10:54:20;17.70;51.90
13928;DHT22;7036;50.834;4.718;2023-03-16T10:56:42;17.70;52.00
13928;DHT22;7036;50.834;4.718;2023-03-16T10:59:23;17.70;52.00
13928;DHT22;7036;50.834;4.718;2023-03-16T11:01:43;17.60;52.60
13928;DHT22;7036;50.834;4.718;2023-03-16T11:04:12;17.70;52.10
13928;DHT22;7036;50.834;4.718;2023-03-16T11:06:36;17.60;52.00
13928;DHT22;7036;50.834;4.718;2023-03-16T11:09:04;17.70;52.10
13928;DHT22;7036;50.834;4.718;2023-03-16T11:11:30;17.70;52.10
13928;DHT22;7036;50.834;4.718;2023-03-16T11:13:59;17.70;52.10
13928;DHT22;7036;50.834;4.718;2023-03-16T11:16:36;17.60;52.00
13928;DHT22;7036;50.834;4.718;2023-03-16T11:26:52;17.70;53.30
13928;DHT22;7036;50.834;4.718;2023-03-16T11:29:19;17.70;53.30
13928;DHT22;7036;50.834;4.718;2023-03-16T11:31:48;17.60;53.20
13928;DHT22;7036;50.834;4.718;2023-03-16T11:34:14;17.60;53.00
13928;DHT22;7036;50.834;4.718;2023-03-16T11:36:51;17.60;53.00
13928;DHT22;7036;50.834;4.718;2023-03-16T11:53:19;17.60;52.60
13928;DHT22;7036;50.834;4.718;2023-03-16T12:12:52;17.50;52.70
13928;DHT22;7036;50.834;4.718;2023-03-16T12:18:11;17.50;52.40
13928;DHT22;7036;50.834;4.718;2023-03-16T12:20:56;17.50;52.20
13928;DHT22;7036;50.834;4.718;2023-03-16T12:25:56;17.50;52.30
13928;DHT22;7036;50.834;4.718;2023-03-16T12:28:24;17.50;52.20
13928;DHT22;7036;50.834;4.718;2023-03-16T12:33:58;17.50;52.10
13928;DHT22;7036;50.834;4.718;2023-03-16T12:36:36;17.50;52.10
13928;DHT22;7036;50.834;4.718;2023-03-16T12:39:04;17.50;52.00
13928;DHT22;7036;50.834;4.718;2023-03-16T12:44:44;17.50;51.80
13928;DHT22;7036;50.834;4.718;2023-03-16T12:47:31;17.50;51.80
13928;DHT22;7036;50.834;4.718;2023-03-16T12:50:02;17.50;51.80
13928;DHT22;7036;50.834;4.718;2023-03-16T12:52:23;17.50;52.40
13928;DHT22;7036;50.834;4.718;2023-03-16T12:54:53;17.50;51.70
13928;DHT22;7036;50.834;4.718;2023-03-16T12:57:21;17.50;51.70
13928;DHT22;7036;50.834;4.718;2023-03-16T12:59:46;17.50;51.60
13928;DHT22;7036;50.834;4.718;2023-03-16T13:02:23;17.50;51.60
13928;DHT22;7036;50.834;4.718;2023-03-16T13:04:44;17.50;52.40
13928;DHT22;7036;50.834;4.718;2023-03-16T13:07:24;17.50;51.70
13928;DHT22;7036;50.834;4.718;2023-03-16T13:10:08;17.50;51.70
13928;DHT22;7036;50.834;4.718;2023-03-16T13:12:35;17.50;51.60
13928;DHT22;7036;50.834;4.718;2023-03-16T13:15:02;17.50;51.50
13928;DHT22;7036;50.834;4.718;2023-03-16T13:17:29;17.50;51.50
13928;DHT22;7036;50.834;4.718;2023-03-16T13:23:06;17.50;51.40
13928;DHT22;7036;50.834;4.718;2023-03-16T13:27:58;17.50;51.00
13928;DHT22;7036;50.834;4.718;2023-03-16T13:30:29;17.50;50.80
13928;DHT22;7036;50.834;4.718;2023-03-16T13:33:29;17.50;51.00
13928;DHT22;7036;50.834;4.718;2023-03-16T13:35:28;17.50;51.00
13928;DHT22;7036;50.834;4.718;2023-03-16T13:38:01;17.50;51.10
13928;DHT22;7036;50.834;4.718;2023-03-16T13:40:23;17.50;51.00
13928;DHT22;7036;50.834;4.718;2023-03-16T13:42:49;17.50;51.10
13928;DHT22;7036;50.834;4.718;2023-03-16T13:45:18;17.50;51.30
13928;DHT22;7036;50.834;4.718;2023-03-16T13:47:44;17.50;51.30
13928;DHT22;7036;50.834;4.718;2023-03-16T13:50:11;17.50;51.40
13928;DHT22;7036;50.834;4.718;2023-03-16T13:52:38;17.50;51.30
13928;DHT22;7036;50.834;4.718;2023-03-16T13:55:17;17.50;51.90
13928;DHT22;7036;50.834;4.718;2023-03-16T13:57:44;17.60;51.40
13928;DHT22;7036;50.834;4.718;2023-03-16T14:00:29;17.50;51.30
13928;DHT22;7036;50.834;4.718;2023-03-16T14:02:53;17.60;51.50
13928;DHT22;7036;50.834;4.718;2023-03-16T14:05:26;17.60;51.50
13928;DHT22;7036;50.834;4.718;2023-03-16T14:07:52;17.50;50.70
13928;DHT22;7036;50.834;4.718;2023-03-16T14:10:20;17.50;50.80
13928;DHT22;7036;50.834;4.718;2023-03-16T14:12:55;17.60;51.20
13928;DHT22;7036;50.834;4.718;2023-03-16T14:15:19;17.60;51.30
13928;DHT22;7036;50.834;4.718;2023-03-16T14:17:46;17.50;51.30
13928;DHT22;7036;50.834;4.718;2023-03-16T14:20:17;17.60;51.50
13928;DHT22;7036;50.834;4.718;2023-03-16T14:22:42;17.60;51.60
13928;DHT22;7036;50.834;4.718;2023-03-16T14:25:10;17.60;51.70
13928;DHT22;7036;50.834;4.718;2023-03-16T14:32:39;17.60;52.20
13928;DHT22;7036;50.834;4.718;2023-03-16T14:35:13;17.60;52.20
13928;DHT22;7036;50.834;4.718;2023-03-16T14:37:38;17.60;52.40
13928;DHT22;7036;50.834;4.718;2023-03-16T14:40:28;17.60;52.40
13928;DHT22;7036;50.834;4.718;2023-03-16T14:42:33;17.60;52.40
13928;DHT22;7036;50.834;4.718;2023-03-16T14:45:01;17.60;52.40
13928;DHT22;7036;50.834;4.718;2023-03-16T14:47:27;17.60;53.00
13928;DHT22;7036;50.834;4.718;2023-03-16T14:49:54;17.60;52.50
13928;DHT22;7036;50.834;4.718;2023-03-16T14:52:28;17.60;52.50
13928;DHT22;7036;50.834;4.718;2023-03-16T14:54:54;17.60;52.50
13928;DHT22;7036;50.834;4.718;2023-03-16T14:57:21;17.60;52.50
13928;DHT22;7036;50.834;4.718;2023-03-16T14:59:48;17.60;52.50
13928;DHT22;7036;50.834;4.718;2023-03-16T15:02:24;17.70;52.60
13928;DHT22;7036;50.834;4.718;2023-03-16T15:04:48;17.70;52.50
13928;DHT22;7036;50.834;4.718;2023-03-16T15:07:22;17.70;52.50
13928;DHT22;7036;50.834;4.718;2023-03-16T15:09:49;17.80;52.50
13928;DHT22;7036;50.834;4.718;2023-03-16T15:12:16;17.80;52.40
13928;DHT22;7036;50.834;4.718;2023-03-16T15:14:43;17.90;52.40
13928;DHT22;7036;50.834;4.718;2023-03-16T15:17:27;17.90;52.20
13928;DHT22;7036;50.834;4.718;2023-03-16T15:19:55;18.00;52.10
13928;DHT22;7036;50.834;4.718;2023-03-16T15:22:31;18.10;52.00
13928;DHT22;7036;50.834;4.718;2023-03-16T15:24:57;18.10;51.90
13928;DHT22;7036;50.834;4.718;2023-03-16T15:27:26;18.20;51.80
13928;DHT22;7036;50.834;4.718;2023-03-16T15:29:51;18.20;51.80
13928;DHT22;7036;50.834;4.718;2023-03-16T15:32:18;18.20;51.80
13928;DHT22;7036;50.834;4.718;2023-03-16T15:34:46;18.20;51.80
13928;DHT22;7036;50.834;4.718;2023-03-16T15:37:13;18.20;51.70
13928;DHT22;7036;50.834;4.718;2023-03-16T15:39:40;18.20;51.70
13928;DHT22;7036;50.834;4.718;2023-03-16T15:42:14;18.20;51.70
13928;DHT22;7036;50.834;4.718;2023-03-16T15:44:37;18.20;51.70
13928;DHT22;7036;50.834;4.718;2023-03-16T15:47:04;18.20;51.60
13928;DHT22;7036;50.834;4.718;2023-03-16T15:49:31;18.30;51.70
13928;DHT22;7036;50.834;4.718;2023-03-16T15:51:58;18.30;51.70
13928;DHT22;7036;50.834;4.718;2023-03-16T15:54:25;18.30;51.80
13928;DHT22;7036;50.834;4.718;2023-03-16T15:56:52;18.20;51.80
13928;DHT22;7036;50.834;4.718;2023-03-16T15:59:20;18.30;51.80
13928;DHT22;7036;50.834;4.718;2023-03-16T16:01:47;18.20;51.80
13928;DHT22;7036;50.834;4.718;2023-03-16T16:04:15;18.20;51.70
13928;DHT22;7036;50.834;4.718;2023-03-16T16:06:41;18.20;51.70
13928;DHT22;7036;50.834;4.718;2023-03-16T16:09:08;18.20;51.70
13928;DHT22;7036;50.834;4.718;2023-03-16T16:11:35;18.20;51.70
13928;DHT22;7036;50.834;4.718;2023-03-16T16:14:03;18.20;51.70
13928;DHT22;7036;50.834;4.718;2023-03-16T16:16:30;18.20;51.70
13928;DHT22;7036;50.834;4.718;2023-03-16T16:18:57;18.20;51.70
13928;DHT22;7036;50.834;4.718;2023-03-16T16:21:25;18.10;51.70
13928;DHT22;7036;50.834;4.718;2023-03-16T16:23:51;18.10;51.80
13928;DHT22;7036;50.834;4.718;2023-03-16T16:28:48;18.10;51.80
13928;DHT22;7036;50.834;4.718;2023-03-16T16:31:15;18.10;51.80
13928;DHT22;7036;50.834;4.718;2023-03-16T16:33:42;18.10;51.90
13928;DHT22;7036;50.834;4.718;2023-03-16T16:36:12;18.10;51.90
13928;DHT22;7036;50.834;4.718;2023-03-16T16:38:38;18.10;51.90
13928;DHT22;7036;50.834;4.718;2023-03-16T16:41:06;18.10;51.90
13928;DHT22;7036;50.834;4.718;2023-03-16T16:43:39;18.10;51.90
13928;DHT22;7036;50.834;4.718;2023-03-16T16:46:09;18.10;51.90
13928;DHT22;7036;50.834;4.718;2023-03-16T16:48:34;18.10;51.90
13928;DHT22;7036;50.834;4.718;2023-03-16T16:51:00;18.00;51.70
13928;DHT22;7036;50.834;4.718;2023-03-16T16:53:27;18.00;51.70
13928;DHT22;7036;50.834;4.718;2023-03-16T16:55:54;18.00;51.60
13928;DHT22;7036;50.834;4.718;2023-03-16T16:58:21;18.10;51.70
13928;DHT22;7036;50.834;4.718;2023-03-16T17:00:53;18.00;51.50
13928;DHT22;7036;50.834;4.718;2023-03-16T17:03:27;18.00;51.50
13928;DHT22;7036;50.834;4.718;2023-03-16T17:05:45;18.00;51.50
13928;DHT22;7036;50.834;4.718;2023-03-16T17:08:12;18.00;51.60
13928;DHT22;7036;50.834;4.718;2023-03-16T17:10:40;18.00;51.60